Time;durP1;ratioP1;P1;durP2;ratioP2;P2;SDS_P1;SDS_P2;PMS_P1;PMS_P2;Temp;Humidity;BMP_temperature;BMP_pressure;BME280_temperature;BME280_humidity;BME280_pressure;Samples;Min_cycle;Max_cycle;Signal;HPM_P1;HPM_P2
2022/07/30 00:02:17;;;;;;;5.93;1.98;;;24.70;52.40;;;;;;5053777;28;20033;-39
2022/07/30 00:04:43;;;;;;;3.00;1.95;;;24.70;52.30;;;;;;5051923;28;20036;-39
2022/07/30 00:07:09;;;;;;;4.35;1.60;;;24.70;52.20;;;;;;5052599;28;20037;-39
2022/07/30 00:09:35;;;;;;;4.65;2.13;;;24.70;52.30;;;;;;5049731;28;20422;-39
2022/07/30 00:12:01;;;;;;;5.43;2.50;;;24.70;52.70;;;;;;5051319;28;20402;-39
2022/07/30 00:14:26;;;;;;;2.75;1.98;;;24.70;53.20;;;;;;5052943;28;20033;-39
2022/07/30 00:16:52;;;;;;;3.13;2.28;;;24.70;53.60;;;;;;5058966;28;20024;-43
2022/07/30 00:19:19;;;;;;;3.50;2.55;;;24.70;53.80;;;;;;5061338;28;20119;-40
2022/07/30 00:21:45;;;;;;;4.47;2.22;;;24.70;53.90;;;;;;5055900;28;20024;-38
2022/07/30 00:24:10;;;;;;;3.70;2.53;;;24.70;53.90;;;;;;5055518;28;20031;-39
2022/07/30 00:26:36;;;;;;;4.18;2.38;;;24.70;54.00;;;;;;5057220;28;20024;-39
2022/07/30 00:29:03;;;;;;;6.78;2.78;;;24.60;54.10;;;;;;5055591;28;20033;-39
2022/07/30 00:31:29;;;;;;;2.63;2.33;;;24.70;54.50;;;;;;5053463;28;20114;-39
2022/07/30 00:33:55;;;;;;;5.20;2.20;;;24.70;54.30;;;;;;5058255;28;20091;-46
2022/07/30 00:36:21;;;;;;;2.47;1.90;;;24.60;54.20;;;;;;5053687;28;20037;-39
2022/07/30 00:38:46;;;;;;;5.00;2.38;;;24.60;53.90;;;;;;5059953;28;20044;-39
2022/07/30 00:41:12;;;;;;;7.07;2.15;;;24.60;54.00;;;;;;5050971;28;20031;-40
2022/07/30 00:43:37;;;;;;;3.78;1.95;;;24.60;54.10;;;;;;5059522;28;20028;-39
2022/07/30 00:46:03;;;;;;;3.33;2.35;;;24.60;54.10;;;;;;5049299;28;20462;-39
2022/07/30 00:48:29;;;;;;;4.70;2.00;;;24.60;54.20;;;;;;5048225;28;20080;-39
2022/07/30 00:50:54;;;;;;;3.95;2.00;;;24.60;54.30;;;;;;5050980;28;20112;-45
2022/07/30 00:53:20;;;;;;;2.08;1.75;;;24.60;54.30;;;;;;5059014;28;20036;-39
2022/07/30 00:55:46;;;;;;;4.35;2.20;;;24.60;54.60;;;;;;5052238;28;20025;-39
2022/07/30 00:58:11;;;;;;;2.75;2.25;;;24.60;54.40;;;;;;5053186;28;20040;-39
2022/07/30 01:00:37;;;;;;;5.45;2.60;;;24.60;54.30;;;;;;5051399;28;20385;-39
2022/07/30 01:03:03;;;;;;;3.53;2.50;;;24.60;54.50;;;;;;5053004;28;20024;-39
2022/07/30 01:05:29;;;;;;;3.08;1.90;;;24.60;54.50;;;;;;5051952;28;20044;-39
2022/07/30 01:07:55;;;;;;;4.10;2.20;;;24.60;54.70;;;;;;5051733;28;20032;-45
2022/07/30 01:10:20;;;;;;;3.05;2.05;;;24.50;55.00;;;;;;5052518;28;20053;-39
2022/07/30 01:12:46;;;;;;;2.90;2.20;;;24.50;54.90;;;;;;5056001;28;20071;-39
2022/07/30 01:15:12;;;;;;;3.28;2.33;;;24.50;55.10;;;;;;5049602;28;20033;-39
2022/07/30 01:17:38;;;;;;;3.45;2.33;;;24.50;55.20;;;;;;5056400;28;20116;-39
2022/07/30 01:20:17;;;;;;;2.53;2.30;;;24.50;55.40;;;;;;5049790;28;20128;-39
2022/07/30 01:22:58;;;;;;;3.78;2.30;;;24.50;55.90;;;;;;5056147;28;20021;-39
2022/07/30 01:25:30;;;;;;;3.75;2.30;;;24.40;56.00;;;;;;5050620;28;20036;-39
2022/07/30 01:28:06;;;;;;;2.38;1.77;;;24.40;55.50;;;;;;5051157;28;20082;-43
2022/07/30 01:30:37;;;;;;;3.53;2.78;;;24.50;55.60;;;;;;5051593;28;20454;-39
2022/07/30 01:33:04;;;;;;;3.15;2.13;;;24.50;55.90;;;;;;5053168;28;20027;-39
2022/07/30 01:35:32;;;;;;;2.95;1.90;;;24.50;56.10;;;;;;5051862;28;20029;-41
2022/07/30 01:37:59;;;;;;;2.53;2.15;;;24.50;56.40;;;;;;5051255;28;20066;-43
2022/07/30 01:40:26;;;;;;;11.90;3.08;;;24.50;56.30;;;;;;5050963;28;20449;-39
2022/07/30 01:42:56;;;;;;;2.97;2.50;;;24.50;56.20;;;;;;5048672;28;20037;-39
2022/07/30 01:45:24;;;;;;;3.08;2.17;;;24.40;56.00;;;;;;5049241;28;20028;-39
2022/07/30 01:47:54;;;;;;;2.35;1.80;;;24.40;56.10;;;;;;5051704;28;20029;-39
2022/07/30 01:50:21;;;;;;;3.28;2.08;;;24.40;56.10;;;;;;5050298;28;20033;-39
2022/07/30 01:52:50;;;;;;;2.50;2.30;;;24.40;55.90;;;;;;5050800;28;20040;-39
2022/07/30 01:55:20;;;;;;;5.25;2.40;;;24.50;55.90;;;;;;5048891;28;20140;-39
2022/07/30 01:57:47;;;;;;;3.55;2.17;;;24.40;55.80;;;;;;5051058;28;20036;-41
2022/07/30 02:00:13;;;;;;;3.40;2.40;;;24.40;55.80;;;;;;5058805;28;20032;-39
2022/07/30 02:02:40;;;;;;;3.15;2.08;;;24.40;55.70;;;;;;5063684;28;20351;-39
2022/07/30 02:05:07;;;;;;;2.22;1.92;;;24.40;55.60;;;;;;5052024;28;20037;-40
2022/07/30 02:07:32;;;;;;;4.18;2.30;;;24.40;56.10;;;;;;5055840;28;20025;-39
2022/07/30 02:10:06;;;;;;;2.85;2.33;;;24.30;56.10;;;;;;5057347;28;20504;-43
2022/07/30 02:12:35;;;;;;;2.75;2.08;;;24.30;56.40;;;;;;5050655;28;20044;-40
2022/07/30 02:15:30;;;;;;;2.42;2.00;;;24.30;56.20;;;;;;5050633;28;20025;-43
2022/07/30 02:18:21;;;;;;;2.58;1.85;;;24.30;56.10;;;;;;5051123;28;21244;-39
2022/07/30 02:20:54;;;;;;;2.47;2.00;;;24.30;56.40;;;;;;5055728;28;20111;-42
2022/07/30 02:23:21;;;;;;;3.03;2.10;;;24.30;56.30;;;;;;5054179;28;20108;-40
2022/07/30 02:25:50;;;;;;;3.05;2.03;;;24.30;56.00;;;;;;5047028;28;20025;-39
2022/07/30 02:28:18;;;;;;;2.88;2.15;;;24.30;55.90;;;;;;5056600;28;20037;-39
2022/07/30 02:30:48;;;;;;;3.03;2.00;;;24.30;56.60;;;;;;5053556;28;20028;-39
2022/07/30 02:33:17;;;;;;;5.78;2.17;;;24.30;56.00;;;;;;5049257;28;20052;-39
2022/07/30 02:35:43;;;;;;;2.20;1.70;;;24.20;56.10;;;;;;5050503;28;20036;-39
2022/07/30 02:38:12;;;;;;;3.83;2.83;;;24.20;56.00;;;;;;5057456;28;20029;-39
2022/07/30 02:40:40;;;;;;;2.20;1.83;;;24.20;56.20;;;;;;5055826;28;20022;-39
2022/07/30 02:43:06;;;;;;;1.73;1.48;;;24.20;56.10;;;;;;5053392;28;20389;-39
2022/07/30 02:45:33;;;;;;;3.17;2.00;;;24.20;56.20;;;;;;5048812;28;20025;-39
2022/07/30 02:48:05;;;;;;;3.17;1.92;;;24.30;55.90;;;;;;5061171;28;20028;-46
2022/07/30 02:50:31;;;;;;;3.55;1.90;;;24.20;55.80;;;;;;5056524;28;20378;-39
2022/07/30 02:52:59;;;;;;;2.58;1.95;;;24.20;55.90;;;;;;5054623;28;20037;-39
2022/07/30 02:55:27;;;;;;;2.22;1.80;;;24.20;55.90;;;;;;5054196;28;20024;-39
2022/07/30 02:57:53;;;;;;;3.65;2.00;;;24.20;55.70;;;;;;5056945;28;20032;-40
2022/07/30 03:00:20;;;;;;;2.88;2.03;;;24.20;55.50;;;;;;5053814;28;20033;-39
2022/07/30 03:02:46;;;;;;;3.67;2.20;;;24.20;55.30;;;;;;5057101;28;20079;-39
2022/07/30 03:05:14;;;;;;;3.53;2.20;;;24.20;55.20;;;;;;5054509;28;20037;-39
2022/07/30 03:07:41;;;;;;;2.42;1.85;;;24.20;55.10;;;;;;5059758;28;20037;-39
2022/07/30 03:10:07;;;;;;;2.78;2.00;;;24.10;55.20;;;;;;5058497;28;20405;-39
2022/07/30 03:12:33;;;;;;;3.38;1.80;;;24.10;55.20;;;;;;5065748;28;20347;-40
2022/07/30 03:14:59;;;;;;;2.50;1.98;;;24.10;55.30;;;;;;5053475;28;20036;-39
2022/07/30 03:17:27;;;;;;;3.75;2.10;;;24.10;55.30;;;;;;5054197;28;20037;-39
2022/07/30 03:19:55;;;;;;;4.05;1.98;;;24.00;55.30;;;;;;5061340;28;20033;-39
2022/07/30 03:22:24;;;;;;;3.85;1.85;;;24.00;55.30;;;;;;5064694;28;20135;-39
2022/07/30 03:24:53;;;;;;;2.38;1.98;;;24.10;55.00;;;;;;5054220;28;20109;-39
2022/07/30 03:27:19;;;;;;;3.25;1.70;;;24.10;54.80;;;;;;5059312;28;20390;-39
2022/07/30 03:29:47;;;;;;;4.60;2.20;;;24.10;54.70;;;;;;5055112;28;20032;-39
2022/07/30 03:32:13;;;;;;;4.53;2.20;;;24.10;54.50;;;;;;5051988;28;20071;-40
2022/07/30 03:34:40;;;;;;;2.70;2.00;;;24.00;54.50;;;;;;5045619;28;20053;-44
2022/07/30 03:37:06;;;;;;;5.72;2.30;;;24.00;54.50;;;;;;5056206;28;20040;-43
2022/07/30 03:39:33;;;;;;;3.72;1.95;;;24.00;54.50;;;;;;5060070;28;20394;-40
2022/07/30 03:42:00;;;;;;;4.18;2.13;;;24.00;54.60;;;;;;5051834;28;20401;-39
2022/07/30 03:44:26;;;;;;;2.40;2.00;;;24.00;54.60;;;;;;5056218;28;20036;-39
2022/07/30 03:46:52;;;;;;;2.95;2.40;;;23.90;54.30;;;;;;5053769;28;20044;-39
2022/07/30 03:49:19;;;;;;;4.47;2.08;;;24.00;54.00;;;;;;5052773;28;20036;-39
2022/07/30 03:51:46;;;;;;;3.42;1.92;;;24.00;53.60;;;;;;5052552;28;20119;-39
2022/07/30 03:54:12;;;;;;;2.47;2.00;;;24.00;53.60;;;;;;5050618;28;20028;-43
2022/07/30 03:56:38;;;;;;;3.17;2.00;;;23.90;53.70;;;;;;5054626;28;20033;-39
2022/07/30 03:59:04;;;;;;;3.90;2.00;;;23.90;53.70;;;;;;5055597;28;20112;-42
2022/07/30 04:01:30;;;;;;;3.33;2.03;;;23.90;53.50;;;;;;5051852;28;20032;-39
2022/07/30 04:04:06;;;;;;;2.47;1.45;;;23.90;53.60;;;;;;5054461;28;20029;-39
2022/07/30 04:06:38;;;;;;;4.65;2.10;;;23.90;53.20;;;;;;5055804;28;20161;-39
2022/07/30 04:09:13;;;;;;;4.22;1.92;;;23.90;53.10;;;;;;5056710;28;20025;-45
2022/07/30 04:11:39;;;;;;;2.92;1.80;;;23.90;53.30;;;;;;5056030;28;20033;-39
2022/07/30 04:14:06;;;;;;;3.47;2.13;;;23.90;53.10;;;;;;5053504;28;20060;-45
2022/07/30 04:16:56;;;;;;;2.25;1.77;;;23.80;53.10;;;;;;5052238;28;20068;-39
2022/07/30 04:19:27;;;;;;;4.65;1.83;;;23.80;53.00;;;;;;5058086;28;20039;-39
2022/07/30 04:21:54;;;;;;;4.93;2.10;;;23.80;53.10;;;;;;5058892;28;20493;-39
2022/07/30 04:24:21;;;;;;;3.20;1.90;;;23.90;52.70;;;;;;5047674;28;20036;-42
2022/07/30 04:26:48;;;;;;;5.50;2.00;;;23.80;52.70;;;;;;5054597;28;20036;-39
2022/07/30 04:29:15;;;;;;;3.72;2.08;;;23.80;53.10;;;;;;5051335;28;20023;-39
2022/07/30 04:31:40;;;;;;;4.25;2.10;;;23.80;53.30;;;;;;5050062;28;20124;-40
2022/07/30 04:34:06;;;;;;;2.80;1.67;;;23.80;53.50;;;;;;5042613;28;20423;-43
2022/07/30 04:36:32;;;;;;;4.47;1.90;;;23.80;53.30;;;;;;5048273;28;20128;-39
2022/07/30 04:38:59;;;;;;;5.70;2.28;;;23.80;53.10;;;;;;5056625;28;20390;-39
2022/07/30 04:41:25;;;;;;;6.38;2.50;;;23.80;53.30;;;;;;5052483;28;20048;-39
2022/07/30 04:43:51;;;;;;;3.42;2.10;;;23.80;53.50;;;;;;5059938;28;20029;-39
2022/07/30 04:46:17;;;;;;;6.03;2.40;;;23.80;54.30;;;;;;5046004;28;20091;-39
2022/07/30 04:48:42;;;;;;;6.80;2.58;;;23.80;53.30;;;;;;5051631;28;20037;-38
2022/07/30 04:51:17;;;;;;;4.70;2.85;;;23.80;53.30;;;;;;5056099;28;20028;-43
2022/07/30 04:53:43;;;;;;;4.25;2.45;;;23.80;53.30;;;;;;5048402;28;20041;-41
2022/07/30 04:56:10;;;;;;;3.88;2.00;;;23.80;53.50;;;;;;5044865;28;20028;-43
2022/07/30 04:58:40;;;;;;;4.95;2.10;;;23.80;53.60;;;;;;5061620;28;20033;-39
2022/07/30 05:01:05;;;;;;;3.15;1.83;;;23.80;54.30;;;;;;5046600;28;20041;-39
2022/07/30 05:03:33;;;;;;;4.35;2.55;;;23.80;53.40;;;;;;5060231;28;20031;-39
2022/07/30 05:06:00;;;;;;;5.82;2.40;;;23.80;53.50;;;;;;5052384;28;20070;-39
2022/07/30 05:08:26;;;;;;;10.85;2.65;;;23.80;53.50;;;;;;5048372;28;20036;-44
2022/07/30 05:10:53;;;;;;;4.57;2.05;;;23.80;53.40;;;;;;5055947;28;20504;-39
2022/07/30 05:13:19;;;;;;;4.80;2.45;;;23.90;53.20;;;;;;5055788;28;20044;-39
2022/07/30 05:15:44;;;;;;;3.88;2.20;;;23.90;53.10;;;;;;5051729;28;20037;-39
2022/07/30 05:18:11;;;;;;;4.57;2.60;;;23.90;52.80;;;;;;5051202;28;20044;-43
2022/07/30 05:20:37;;;;;;;3.60;1.70;;;23.90;52.70;;;;;;5049273;28;20036;-38
2022/07/30 05:23:03;;;;;;;6.43;2.17;;;23.90;52.60;;;;;;5058472;28;20029;-39
2022/07/30 05:25:29;;;;;;;5.68;2.05;;;23.90;52.40;;;;;;5054582;28;20068;-38
2022/07/30 05:27:56;;;;;;;2.55;2.03;;;23.90;52.10;;;;;;5051308;28;20126;-41
2022/07/30 05:30:23;;;;;;;4.38;2.00;;;24.00;52.20;;;;;;5056184;28;20439;-39
2022/07/30 05:32:49;;;;;;;4.55;2.40;;;24.00;52.20;;;;;;5055164;28;20104;-39
2022/07/30 05:35:14;;;;;;;4.65;1.85;;;24.00;52.00;;;;;;5051556;28;21536;-45
2022/07/30 05:37:40;;;;;;;3.92;2.33;;;24.00;51.90;;;;;;5051817;28;20041;-39
2022/07/30 05:40:06;;;;;;;3.35;2.10;;;24.10;52.00;;;;;;5050096;28;20021;-39
2022/07/30 05:42:32;;;;;;;2.92;1.73;;;24.10;51.80;;;;;;5057215;28;20067;-39
2022/07/30 05:44:59;;;;;;;7.05;2.55;;;24.20;51.80;;;;;;5045970;28;20097;-39
2022/07/30 05:47:25;;;;;;;4.88;2.15;;;24.20;51.80;;;;;;5051063;28;20021;-39
2022/07/30 05:49:51;;;;;;;3.15;2.40;;;24.20;52.00;;;;;;5050828;28;20021;-39
2022/07/30 05:52:16;;;;;;;8.60;2.40;;;24.20;51.80;;;;;;5049033;28;20036;-42
2022/07/30 05:54:42;;;;;;;3.47;2.20;;;24.30;51.70;;;;;;5053661;28;20025;-40
2022/07/30 05:57:11;;;;;;;3.83;2.60;;;24.30;51.20;;;;;;5031920;28;20470;-44
2022/07/30 05:59:36;;;;;;;3.72;2.45;;;24.30;51.20;;;;;;5050656;28;20039;-39
2022/07/30 06:02:02;;;;;;;5.60;3.03;;;24.40;50.80;;;;;;5054459;28;20021;-39
2022/07/30 06:04:29;;;;;;;5.00;2.55;;;24.40;50.80;;;;;;5047578;28;20029;-41
2022/07/30 06:06:54;;;;;;;3.92;2.50;;;24.40;50.80;;;;;;5025738;28;20064;-39
2022/07/30 06:09:20;;;;;;;4.50;2.15;;;24.50;50.90;;;;;;5051472;28;20520;-39
2022/07/30 06:11:46;;;;;;;5.60;2.55;;;24.50;51.10;;;;;;5050572;28;20037;-39
2022/07/30 06:14:11;;;;;;;4.13;2.50;;;24.50;50.50;;;;;;5049874;28;20028;-43
2022/07/30 06:16:37;;;;;;;4.30;2.10;;;24.50;50.80;;;;;;5045639;28;20106;-39
2022/07/30 06:19:03;;;;;;;3.13;1.95;;;24.60;50.70;;;;;;5046531;28;20462;-40
2022/07/30 06:21:29;;;;;;;3.88;2.08;;;24.70;50.60;;;;;;5047202;28;20025;-39
2022/07/30 06:23:55;;;;;;;2.80;2.10;;;24.70;50.30;;;;;;5049454;28;20127;-40
2022/07/30 06:26:20;;;;;;;5.03;2.25;;;24.80;50.40;;;;;;5043899;28;20037;-39
2022/07/30 06:28:46;;;;;;;4.65;2.42;;;24.90;50.20;;;;;;5045826;28;20127;-42
2022/07/30 06:31:11;;;;;;;5.03;2.45;;;24.90;50.30;;;;;;5042695;28;20613;-45
2022/07/30 06:33:38;;;;;;;4.10;2.10;;;24.90;50.20;;;;;;5044966;28;20037;-40
2022/07/30 06:36:04;;;;;;;3.40;1.83;;;24.90;50.30;;;;;;5045776;28;20025;-39
2022/07/30 06:38:29;;;;;;;4.78;2.10;;;25.00;50.20;;;;;;5046346;28;20072;-39
2022/07/30 06:40:55;;;;;;;5.00;2.00;;;25.00;50.40;;;;;;5046036;28;20064;-40
2022/07/30 06:43:21;;;;;;;4.20;2.05;;;24.80;50.50;;;;;;5044707;28;20033;-40
2022/07/30 06:45:47;;;;;;;4.22;2.15;;;24.80;50.70;;;;;;5042273;28;20104;-40
2022/07/30 06:48:12;;;;;;;7.18;2.35;;;24.80;50.40;;;;;;5046628;28;20425;-45
2022/07/30 06:50:40;;;;;;;5.00;2.30;;;24.80;49.90;;;;;;5046597;28;20036;-40
2022/07/30 06:53:05;;;;;;;4.00;2.22;;;24.80;49.70;;;;;;5041486;28;20437;-41
2022/07/30 06:55:31;;;;;;;4.60;2.65;;;24.90;49.70;;;;;;5047018;28;20095;-42
2022/07/30 06:57:57;;;;;;;5.43;2.30;;;24.90;49.50;;;;;;5047426;28;20827;-43
2022/07/30 07:00:23;;;;;;;3.38;1.77;;;24.90;49.30;;;;;;5045478;28;20025;-39
2022/07/30 07:02:48;;;;;;;7.70;3.30;;;24.90;49.10;;;;;;5045606;28;20047;-42
2022/07/30 07:05:15;;;;;;;5.43;2.30;;;24.90;49.20;;;;;;5041543;28;20127;-39
2022/07/30 07:07:42;;;;;;;4.57;2.50;;;25.00;49.20;;;;;;5048267;28;20045;-39
2022/07/30 07:10:09;;;;;;;4.05;2.30;;;25.00;49.00;;;;;;5044387;28;20041;-44
2022/07/30 07:12:37;;;;;;;5.40;2.17;;;25.00;49.10;;;;;;5044781;28;20148;-38
2022/07/30 07:15:04;;;;;;;4.82;2.08;;;25.00;49.00;;;;;;5049611;28;20029;-38
2022/07/30 07:17:29;;;;;;;5.50;2.88;;;25.00;49.10;;;;;;5047792;28;20043;-39
2022/07/30 07:19:55;;;;;;;3.47;2.08;;;25.00;48.80;;;;;;5049873;28;20036;-39
2022/07/30 07:22:20;;;;;;;9.02;3.35;;;25.10;48.80;;;;;;5044920;28;20049;-41
2022/07/30 07:24:46;;;;;;;3.42;2.00;;;25.10;48.80;;;;;;5048219;28;20528;-39
2022/07/30 07:27:12;;;;;;;5.30;2.35;;;25.10;48.80;;;;;;5046381;28;20048;-44
2022/07/30 07:29:37;;;;;;;3.88;2.33;;;25.10;48.60;;;;;;5051990;28;20036;-38
2022/07/30 07:32:03;;;;;;;5.43;2.30;;;25.10;48.50;;;;;;5044395;28;20037;-39
2022/07/30 07:34:29;;;;;;;3.33;2.35;;;25.10;48.50;;;;;;5045743;28;20060;-40
2022/07/30 07:36:55;;;;;;;4.72;2.28;;;25.10;48.00;;;;;;5050103;28;20086;-39
2022/07/30 07:39:20;;;;;;;4.30;2.50;;;25.20;47.90;;;;;;5045223;28;20045;-39
2022/07/30 07:41:46;;;;;;;12.10;2.42;;;25.10;47.70;;;;;;5046904;28;20041;-39
2022/07/30 07:44:11;;;;;;;3.88;2.30;;;25.20;47.70;;;;;;5050764;28;20032;-44
2022/07/30 07:46:37;;;;;;;4.80;2.72;;;25.20;47.90;;;;;;5054843;28;20036;-38
2022/07/30 07:49:03;;;;;;;5.97;2.22;;;25.20;47.80;;;;;;5055138;28;20033;-42
2022/07/30 07:51:29;;;;;;;4.28;2.22;;;25.20;47.60;;;;;;5047517;28;20382;-39
2022/07/30 07:53:54;;;;;;;2.15;1.75;;;25.20;47.90;;;;;;5049950;28;20053;-40
2022/07/30 07:56:20;;;;;;;3.17;2.03;;;25.20;47.70;;;;;;5049030;28;21214;-42
2022/07/30 07:58:47;;;;;;;4.55;2.10;;;25.20;47.60;;;;;;5048023;28;20057;-39
2022/07/30 08:01:13;;;;;;;3.63;2.00;;;25.20;47.50;;;;;;5052407;28;20091;-42
2022/07/30 08:03:38;;;;;;;4.05;2.30;;;25.30;47.70;;;;;;5051886;28;20499;-40
2022/07/30 08:06:04;;;;;;;5.45;2.20;;;25.30;47.60;;;;;;5052264;28;20028;-40
2022/07/30 08:08:30;;;;;;;4.35;2.08;;;25.30;47.40;;;;;;5049452;28;20033;-38
2022/07/30 08:10:55;;;;;;;9.77;2.10;;;25.20;46.80;;;;;;5053647;28;20468;-40
2022/07/30 08:13:22;;;;;;;2.60;2.00;;;25.20;46.90;;;;;;5051901;28;20037;-38
2022/07/30 08:15:48;;;;;;;3.35;1.65;;;25.30;46.90;;;;;;5051414;28;20033;-39
2022/07/30 08:18:14;;;;;;;5.10;1.67;;;25.30;47.10;;;;;;5052968;28;20072;-41
2022/07/30 08:20:39;;;;;;;2.75;1.48;;;25.30;46.70;;;;;;5047480;28;20072;-39
2022/07/30 08:23:06;;;;;;;2.60;1.83;;;25.30;45.80;;;;;;5048990;28;20052;-39
2022/07/30 08:25:32;;;;;;;2.13;1.83;;;25.30;45.80;;;;;;5053366;28;20567;-39
2022/07/30 08:28:01;;;;;;;2.50;1.48;;;25.40;45.60;;;;;;5034303;28;21270;-41
2022/07/30 08:30:27;;;;;;;3.35;1.50;;;25.40;46.10;;;;;;5049790;28;20493;-39
2022/07/30 08:32:53;;;;;;;3.10;1.55;;;25.30;45.70;;;;;;5051748;28;20049;-41
2022/07/30 08:35:19;;;;;;;2.00;1.70;;;25.40;45.60;;;;;;5048577;28;20044;-39
2022/07/30 08:37:44;;;;;;;5.18;2.13;;;25.40;45.60;;;;;;5030746;28;20056;-39
2022/07/30 08:40:10;;;;;;;6.97;2.67;;;25.40;46.00;;;;;;5051705;28;20152;-44
2022/07/30 08:42:37;;;;;;;5.03;2.47;;;25.50;45.60;;;;;;5050443;28;20029;-41
2022/07/30 08:45:03;;;;;;;3.90;1.83;;;25.50;45.80;;;;;;5049383;28;20033;-39
2022/07/30 08:47:33;;;;;;;3.78;1.50;;;25.50;45.50;;;;;;5029587;28;20746;-38
2022/07/30 08:50:03;;;;;;;2.42;1.60;;;25.50;45.10;;;;;;5051274;28;20040;-39
2022/07/30 08:52:39;;;;;;;4.00;1.80;;;25.60;45.10;;;;;;5046553;28;20492;-38
2022/07/30 08:55:05;;;;;;;2.47;1.50;;;25.60;45.20;;;;;;5047554;28;20025;-40
2022/07/30 08:57:33;;;;;;;2.97;1.40;;;25.60;45.40;;;;;;5047168;28;20173;-44
2022/07/30 08:59:59;;;;;;;3.65;1.70;;;25.60;45.10;;;;;;5050421;28;20029;-41
2022/07/30 09:02:25;;;;;;;3.30;1.85;;;25.60;44.50;;;;;;5051112;28;20020;-39
2022/07/30 09:04:52;;;;;;;1.85;1.38;;;25.60;45.10;;;;;;5047784;28;20033;-38
2022/07/30 09:07:17;;;;;;;4.20;1.88;;;25.60;44.70;;;;;;5052306;28;20037;-43
2022/07/30 09:09:43;;;;;;;6.55;1.80;;;25.70;44.40;;;;;;5045870;28;20041;-38
2022/07/30 09:12:31;;;;;;;1.98;1.40;;;25.60;44.70;;;;;;5050733;28;20023;-42
2022/07/30 09:15:15;;;;;;;3.67;1.50;;;25.70;45.00;;;;;;5051665;28;20037;-40
2022/07/30 09:17:59;;;;;;;2.83;1.25;;;25.70;44.90;;;;;;5050037;28;20045;-38
2022/07/30 09:20:27;;;;;;;5.07;1.75;;;25.80;44.90;;;;;;5045489;28;20040;-45
2022/07/30 09:22:59;;;;;;;3.78;1.70;;;25.80;44.60;;;;;;5049455;28;20024;-41
2022/07/30 09:25:38;;;;;;;6.32;2.20;;;25.80;45.10;;;;;;5053089;28;20676;-40
2022/07/30 09:28:06;;;;;;;2.72;1.40;;;25.80;44.30;;;;;;5046529;28;20035;-40
2022/07/30 09:30:52;;;;;;;2.45;1.58;;;25.80;44.10;;;;;;5051012;28;20024;-41
2022/07/30 09:33:38;;;;;;;5.03;1.92;;;25.80;44.50;;;;;;5048681;28;20049;-40
2022/07/30 09:36:06;;;;;;;4.78;2.88;;;25.80;44.30;;;;;;5052227;28;20206;-39
2022/07/30 09:38:46;;;;;;;4.38;1.63;;;25.80;44.70;;;;;;5051525;28;20830;-40
2022/07/30 09:41:13;;;;;;;2.08;1.75;;;25.90;44.80;;;;;;5050218;28;21110;-43
2022/07/30 09:43:43;;;;;;;2.35;1.48;;;25.80;44.60;;;;;;5048838;28;20090;-48
2022/07/30 09:46:09;;;;;;;4.05;1.75;;;25.90;43.70;;;;;;5049886;28;20036;-40
2022/07/30 09:48:35;;;;;;;4.45;1.58;;;25.90;44.30;;;;;;5046931;28;20045;-41
2022/07/30 09:51:01;;;;;;;4.40;2.13;;;25.90;44.20;;;;;;5050135;28;20036;-40
2022/07/30 09:53:26;;;;;;;2.05;1.30;;;25.90;44.60;;;;;;5057033;28;20068;-40
2022/07/30 09:55:52;;;;;;;3.85;1.52;;;25.80;43.90;;;;;;5058677;28;20070;-40
2022/07/30 09:58:18;;;;;;;3.85;1.83;;;25.80;44.30;;;;;;5052791;28;20036;-40
2022/07/30 10:00:44;;;;;;;3.65;1.63;;;25.80;43.70;;;;;;5057564;28;20060;-40
2022/07/30 10:03:18;;;;;;;1.95;1.30;;;25.80;43.60;;;;;;5034826;28;20029;-44
2022/07/30 10:05:58;;;;;;;3.70;1.20;;;25.70;43.50;;;;;;5052475;28;20083;-39
2022/07/30 10:08:39;;;;;;;3.60;1.80;;;25.80;43.70;;;;;;5048276;28;20028;-39
2022/07/30 10:11:05;;;;;;;3.00;1.60;;;25.90;43.70;;;;;;5053509;28;20049;-39
2022/07/30 10:13:32;;;;;;;2.80;1.50;;;25.90;43.30;;;;;;5050301;28;20466;-40
2022/07/30 10:15:59;;;;;;;8.90;1.80;;;25.90;43.80;;;;;;5062680;28;20363;-41
2022/07/30 10:18:25;;;;;;;4.38;1.50;;;26.00;43.70;;;;;;5057435;28;20036;-40
2022/07/30 10:20:50;;;;;;;2.70;1.45;;;26.00;42.80;;;;;;5048261;28;20044;-40
2022/07/30 10:23:17;;;;;;;5.35;1.52;;;26.00;42.80;;;;;;5049670;28;20029;-40
2022/07/30 10:25:43;;;;;;;2.50;1.25;;;25.90;42.50;;;;;;5060919;28;20044;-40
2022/07/30 10:28:09;;;;;;;3.33;1.80;;;26.00;43.00;;;;;;5054344;28;20062;-40
2022/07/30 10:30:35;;;;;;;2.97;1.77;;;26.10;43.30;;;;;;5054273;28;20486;-40
2022/07/30 10:33:01;;;;;;;4.72;1.58;;;26.10;43.20;;;;;;5047232;28;20056;-41
2022/07/30 10:35:28;;;;;;;4.13;1.45;;;26.10;42.00;;;;;;5058081;28;20127;-40
2022/07/30 10:37:55;;;;;;;4.43;1.45;;;26.10;42.80;;;;;;5057727;28;20037;-41
2022/07/30 10:40:31;;;;;;;2.58;1.30;;;26.20;43.20;;;;;;5052752;28;20189;-40
2022/07/30 10:43:08;;;;;;;3.22;1.40;;;26.20;43.00;;;;;;5050658;28;20029;-40
2022/07/30 10:45:58;;;;;;;2.80;1.45;;;26.30;43.00;;;;;;5055171;28;20093;-40
2022/07/30 10:48:24;;;;;;;5.32;1.65;;;26.20;42.60;;;;;;5054634;28;20072;-42
2022/07/30 10:50:57;;;;;;;2.88;1.20;;;26.20;43.00;;;;;;5055734;28;20090;-40
2022/07/30 10:53:46;;;;;;;3.90;1.50;;;26.30;43.60;;;;;;5049684;28;20037;-39
2022/07/30 10:56:13;;;;;;;3.15;1.45;;;26.30;44.40;;;;;;5055822;28;20099;-44
2022/07/30 10:59:17;;;;;;;1.80;1.13;;;26.30;43.70;;;;;;5054127;28;20044;-37
2022/07/30 11:01:46;;;;;;;4.07;1.20;;;26.40;44.60;;;;;;4960098;28;20031;-38
2022/07/30 11:04:27;;;;;;;3.05;1.30;;;26.40;44.30;;;;;;4958273;28;20132;-45
2022/07/30 11:07:19;;;;;;;1.25;1.10;;;26.50;44.50;;;;;;4940777;28;20428;-40
2022/07/30 11:09:46;;;;;;;6.68;1.42;;;26.40;44.70;;;;;;4959013;28;20527;-39
2022/07/30 11:12:11;;;;;;;6.18;1.52;;;26.40;45.20;;;;;;4955831;28;20062;-45
2022/07/30 11:14:46;;;;;;;2.80;1.30;;;26.40;45.40;;;;;;4941412;28;20196;-39
2022/07/30 11:17:18;;;;;;;2.33;1.10;;;26.40;45.40;;;;;;4952633;28;20042;-48
2022/07/30 11:20:05;;;;;;;1.40;1.10;;;26.40;45.20;;;;;;4961166;28;20048;-40
2022/07/30 11:22:39;;;;;;;3.70;1.58;;;26.40;45.30;;;;;;4962879;28;20035;-39
2022/07/30 11:25:20;;;;;;;3.65;1.75;;;26.30;43.50;;;;;;4963672;28;20074;-39
2022/07/30 11:27:47;;;;;;;2.28;1.08;;;26.40;43.70;;;;;;4947160;28;20023;-39
2022/07/30 11:30:15;;;;;;;2.35;1.30;;;26.40;43.70;;;;;;4963828;28;20052;-42
2022/07/30 11:32:43;;;;;;;4.57;1.20;;;26.40;44.20;;;;;;5025262;28;20040;-39
2022/07/30 11:35:29;;;;;;;2.33;1.23;;;26.40;44.10;;;;;;5063388;28;20439;-39
2022/07/30 11:38:06;;;;;;;2.53;1.30;;;26.40;44.10;;;;;;5055383;28;20033;-44
2022/07/30 11:40:43;;;;;;;2.88;1.58;;;26.40;44.20;;;;;;5052759;28;20587;-39
2022/07/30 11:43:24;;;;;;;2.83;1.20;;;26.50;44.30;;;;;;5053301;28;20067;-39
2022/07/30 11:46:03;;;;;;;1.83;1.10;;;26.50;44.40;;;;;;5058637;28;20033;-41
2022/07/30 11:48:30;;;;;;;2.28;1.15;;;26.60;44.30;;;;;;5053748;28;20029;-39
2022/07/30 11:50:56;;;;;;;3.85;1.30;;;26.60;44.20;;;;;;5062168;28;20036;-42
2022/07/30 11:53:22;;;;;;;2.33;1.10;;;26.60;44.30;;;;;;5047453;28;20021;-39
2022/07/30 11:55:54;;;;;;;1.55;1.20;;;26.60;44.50;;;;;;5053588;28;20033;-38
2022/07/30 11:58:29;;;;;;;2.15;1.25;;;26.60;44.30;;;;;;5041372;28;20033;-39
2022/07/30 12:00:56;;;;;;;2.90;1.20;;;26.60;44.10;;;;;;5053483;28;20091;-40
2022/07/30 12:03:25;;;;;;;6.75;1.23;;;26.70;44.40;;;;;;5057108;28;20040;-42
2022/07/30 12:05:51;;;;;;;4.47;1.58;;;26.70;44.50;;;;;;5055057;28;20490;-39
2022/07/30 12:08:17;;;;;;;3.33;1.00;;;26.70;44.60;;;;;;5052958;28;20039;-45
2022/07/30 12:10:53;;;;;;;1.35;1.13;;;26.70;44.50;;;;;;5057109;28;20045;-39
2022/07/30 12:13:19;;;;;;;2.17;1.33;;;26.70;44.70;;;;;;5056130;28;20043;-39
2022/07/30 12:15:47;;;;;;;4.28;1.38;;;26.80;44.80;;;;;;5051010;28;20120;-39
2022/07/30 12:18:21;;;;;;;4.47;1.08;;;26.80;44.70;;;;;;5060197;28;20063;-43
2022/07/30 12:20:53;;;;;;;2.08;1.13;;;26.70;44.70;;;;;;5060016;28;20033;-39
2022/07/30 12:23:19;;;;;;;1.13;0.90;;;26.80;44.80;;;;;;5053114;28;20016;-39
2022/07/30 12:25:44;;;;;;;2.13;0.95;;;26.80;44.70;;;;;;5059697;28;20094;-39
2022/07/30 12:28:18;;;;;;;1.50;0.95;;;26.80;44.90;;;;;;5055641;28;20036;-39
2022/07/30 12:30:44;;;;;;;1.25;0.77;;;26.80;44.80;;;;;;5049063;28;20041;-39
2022/07/30 12:33:09;;;;;;;6.55;3.08;;;26.80;44.90;;;;;;5051697;28;20516;-39
2022/07/30 12:35:45;;;;;;;1.20;1.10;;;26.80;44.80;;;;;;5056557;28;20103;-41
2022/07/30 12:38:11;;;;;;;2.30;1.10;;;26.80;44.90;;;;;;5052066;28;20453;-39
2022/07/30 12:40:53;;;;;;;2.60;2.15;;;26.80;44.90;;;;;;5050872;28;20579;-39
2022/07/30 12:43:37;;;;;;;;;;;26.90;45.50;;;;;;5059620;28;20067;-40
2022/07/30 12:46:04;;;;;;;4.47;1.27;;;26.90;44.90;;;;;;5046108;28;19955;-39
2022/07/30 12:48:29;;;;;;;1.85;1.38;;;26.80;44.90;;;;;;5048177;28;20029;-39
2022/07/30 12:51:06;;;;;;;2.08;1.10;;;26.80;45.00;;;;;;5059947;28;20044;-43
2022/07/30 12:53:32;;;;;;;2.58;0.95;;;26.80;45.20;;;;;;5052838;28;20043;-39
2022/07/30 12:56:14;;;;;;;2.85;1.17;;;26.80;45.10;;;;;;5057945;28;20045;-39